Time;durP1;ratioP1;P1;durP2;ratioP2;P2;SDS_P1;SDS_P2;PMS_P1;PMS_P2;Temp;Humidity;BMP_temperature;BMP_pressure;BME280_temperature;BME280_humidity;BME280_pressure;Samples;Min_cycle;Max_cycle;Signal;HPM_P1;HPM_P2
2023/10/22 00:01:19;;;;;;;6.23;1.63;;;14.20;99.90;;;;;;7293206;19;20197;-85
2023/10/22 00:03:45;;;;;;;11.63;2.00;;;14.20;99.90;;;;;;7288340;19;21079;-86
2023/10/22 00:06:11;;;;;;;10.23;2.00;;;14.30;99.90;;;;;;7285368;19;20203;-85
2023/10/22 00:08:36;;;;;;;9.23;2.03;;;14.30;99.90;;;;;;7288859;19;20190;-86
2023/10/22 00:11:02;;;;;;;10.67;1.80;;;14.40;99.90;;;;;;7309883;19;20330;-85
2023/10/22 00:13:28;;;;;;;10.27;2.47;;;14.30;99.90;;;;;;7287341;19;20191;-84
2023/10/22 00:15:54;;;;;;;9.03;1.93;;;14.20;99.90;;;;;;7289278;19;20538;-85
2023/10/22 00:18:19;;;;;;;6.53;1.70;;;14.10;99.90;;;;;;7286704;19;20190;-85
2023/10/22 00:20:45;;;;;;;5.07;1.70;;;14.10;99.90;;;;;;7290996;19;20209;-85
2023/10/22 00:23:11;;;;;;;8.47;1.90;;;14.10;99.90;;;;;;7288128;19;20214;-85
2023/10/22 00:25:37;;;;;;;7.87;2.20;;;14.10;99.90;;;;;;7287914;19;20188;-87
2023/10/22 00:28:03;;;;;;;5.10;1.90;;;14.20;99.90;;;;;;7315810;19;20196;-85
2023/10/22 00:30:34;;;;;;;6.13;1.70;;;14.30;99.90;;;;;;7290726;19;20790;-86
2023/10/22 00:33:00;;;;;;;8.30;1.43;;;14.30;99.90;;;;;;7289842;19;20202;-86
2023/10/22 00:35:25;;;;;;;7.07;1.67;;;14.40;99.90;;;;;;7290699;19;20191;-86
2023/10/22 00:37:51;;;;;;;5.17;1.50;;;14.40;99.90;;;;;;7288614;19;20198;-85
2023/10/22 00:40:17;;;;;;;7.53;1.60;;;14.30;99.90;;;;;;7291056;19;20195;-86
2023/10/22 00:42:43;;;;;;;6.63;1.27;;;14.30;99.90;;;;;;7280269;19;20225;-85
2023/10/22 00:45:09;;;;;;;6.00;1.60;;;14.40;99.90;;;;;;7289378;19;20201;-86
2023/10/22 00:47:36;;;;;;;4.10;1.10;;;14.40;99.90;;;;;;7300685;19;20199;-85
2023/10/22 00:50:03;;;;;;;7.10;1.30;;;14.50;99.90;;;;;;7309743;19;20195;-85
2023/10/22 00:52:29;;;;;;;4.53;1.30;;;14.50;99.90;;;;;;7285419;19;20259;-85
2023/10/22 00:54:57;;;;;;;6.23;1.00;;;14.40;99.90;;;;;;7285665;19;20200;-84
2023/10/22 00:57:24;;;;;;;4.47;1.20;;;14.50;99.90;;;;;;7278326;19;20190;-85
2023/10/22 00:59:53;;;;;;;5.43;1.40;;;14.50;99.90;;;;;;7287732;19;20199;-85
2023/10/22 01:02:20;;;;;;;4.97;0.90;;;14.50;99.90;;;;;;7286775;19;20194;-84
2023/10/22 01:04:46;;;;;;;5.97;1.00;;;14.50;99.90;;;;;;7286072;19;20623;-85
2023/10/22 01:07:11;;;;;;;7.60;1.13;;;14.40;99.90;;;;;;7286890;19;20204;-86
2023/10/22 01:09:37;;;;;;;5.73;1.00;;;14.50;99.90;;;;;;7286513;19;20828;-86
2023/10/22 01:12:05;;;;;;;5.30;0.97;;;14.60;99.90;;;;;;7307600;19;20199;-83
2023/10/22 01:14:31;;;;;;;5.37;0.83;;;14.60;99.90;;;;;;7285843;19;20749;-85
2023/10/22 01:16:57;;;;;;;3.90;0.90;;;14.60;99.90;;;;;;7287507;19;20625;-86
2023/10/22 01:19:24;;;;;;;5.00;0.90;;;14.60;99.90;;;;;;7287233;19;20196;-86
2023/10/22 01:21:49;;;;;;;5.77;0.93;;;14.50;99.90;;;;;;7288197;19;20191;-87
2023/10/22 01:24:15;;;;;;;6.47;1.07;;;14.50;99.90;;;;;;7285884;19;20647;-85
2023/10/22 01:26:42;;;;;;;6.13;0.77;;;14.60;99.90;;;;;;7285584;19;20188;-85
2023/10/22 01:29:08;;;;;;;3.63;0.77;;;14.50;99.90;;;;;;7286818;19;20280;-85
2023/10/22 01:31:34;;;;;;;2.73;0.80;;;14.50;99.90;;;;;;7306306;19;20195;-86
2023/10/22 01:34:01;;;;;;;5.33;1.00;;;14.50;99.90;;;;;;7309595;19;20195;-86
2023/10/22 01:36:27;;;;;;;3.37;0.80;;;14.60;99.90;;;;;;7286044;19;20650;-86
2023/10/22 01:38:54;;;;;;;6.50;1.27;;;14.60;99.90;;;;;;7285834;19;20190;-85
2023/10/22 01:41:19;;;;;;;2.63;0.70;;;14.50;99.90;;;;;;7285661;19;20586;-85
2023/10/22 01:43:45;;;;;;;6.30;0.83;;;14.50;99.90;;;;;;7285455;19;20213;-85
2023/10/22 01:46:11;;;;;;;5.47;0.90;;;14.40;99.90;;;;;;7286235;19;20266;-86
2023/10/22 01:48:38;;;;;;;4.40;0.70;;;14.40;99.90;;;;;;7285565;19;20579;-86
2023/10/22 01:51:04;;;;;;;4.27;0.70;;;14.30;99.90;;;;;;7306695;19;20191;-85
2023/10/22 01:53:30;;;;;;;2.77;0.83;;;14.40;99.90;;;;;;7285683;19;20250;-86
2023/10/22 01:55:56;;;;;;;5.43;0.80;;;14.40;99.90;;;;;;7284998;19;20200;-86
2023/10/22 01:58:22;;;;;;;6.77;0.90;;;14.30;99.90;;;;;;7285683;19;20643;-86
2023/10/22 02:00:48;;;;;;;4.90;0.73;;;14.40;99.90;;;;;;7285152;19;20195;-86
2023/10/22 02:03:18;;;;;;;3.97;0.70;;;14.40;99.90;;;;;;7284409;19;20207;-85
2023/10/22 02:05:43;;;;;;;4.70;0.80;;;14.40;99.90;;;;;;7285191;19;20185;-86
2023/10/22 02:08:09;;;;;;;1.67;0.70;;;14.30;99.90;;;;;;7285177;19;20620;-86
2023/10/22 02:10:35;;;;;;;5.17;0.83;;;14.30;99.90;;;;;;7292545;19;20992;-86
2023/10/22 02:13:01;;;;;;;6.10;0.80;;;14.30;99.90;;;;;;7304411;19;20698;-87
2023/10/22 02:15:27;;;;;;;4.67;0.70;;;14.30;99.90;;;;;;7285671;19;20201;-86
2023/10/22 02:17:53;;;;;;;6.37;0.80;;;14.30;99.90;;;;;;7286180;19;20221;-87
2023/10/22 02:20:19;;;;;;;5.57;0.90;;;14.30;99.90;;;;;;7284114;19;20204;-85
2023/10/22 02:22:45;;;;;;;5.37;1.10;;;14.30;99.90;;;;;;7284033;19;20206;-86
2023/10/22 02:25:11;;;;;;;5.60;0.83;;;14.20;99.90;;;;;;7283470;19;20232;-86
2023/10/22 02:27:37;;;;;;;5.93;0.90;;;14.20;99.90;;;;;;7284955;19;20653;-85
2023/10/22 02:30:03;;;;;;;5.93;0.90;;;14.10;99.90;;;;;;7318046;19;20191;-85
2023/10/22 02:32:29;;;;;;;6.87;1.00;;;14.10;99.90;;;;;;7298396;19;20219;-85
2023/10/22 02:34:55;;;;;;;4.03;0.90;;;14.10;99.90;;;;;;7296001;19;20185;-84
2023/10/22 02:37:20;;;;;;;5.63;1.00;;;14.10;99.90;;;;;;7297857;19;20233;-85
2023/10/22 02:39:46;;;;;;;5.83;1.20;;;14.10;99.90;;;;;;7297654;19;20194;-84
2023/10/22 02:42:13;;;;;;;5.27;1.33;;;14.20;99.90;;;;;;7295129;19;20522;-85
2023/10/22 02:44:39;;;;;;;3.10;1.10;;;14.20;99.90;;;;;;7297340;19;20190;-86
2023/10/22 02:47:05;;;;;;;6.03;1.13;;;14.20;99.90;;;;;;7307654;19;21050;-86
2023/10/22 02:49:31;;;;;;;4.63;1.03;;;14.20;99.90;;;;;;7319595;19;20204;-85
2023/10/22 02:51:57;;;;;;;5.10;1.10;;;14.20;99.90;;;;;;7297198;19;20207;-84
2023/10/22 02:54:24;;;;;;;8.57;1.50;;;14.20;99.90;;;;;;7295112;19;20191;-85
2023/10/22 02:56:49;;;;;;;6.07;1.30;;;14.20;99.90;;;;;;7295350;19;20183;-84
2023/10/22 02:59:16;;;;;;;6.30;1.43;;;14.10;99.90;;;;;;7298571;19;20201;-85
2023/10/22 03:01:42;;;;;;;4.20;1.30;;;14.10;99.90;;;;;;7297188;19;20659;-86
2023/10/22 03:04:07;;;;;;;8.67;1.60;;;14.10;99.90;;;;;;7296969;19;20186;-85
2023/10/22 03:06:33;;;;;;;5.93;1.40;;;14.10;99.90;;;;;;7318086;19;20194;-86
2023/10/22 03:08:59;;;;;;;6.73;1.63;;;14.10;99.90;;;;;;7296145;19;20194;-86
2023/10/22 03:11:25;;;;;;;7.23;1.80;;;14.00;99.90;;;;;;7295788;19;20192;-87
2023/10/22 03:13:51;;;;;;;5.63;1.80;;;14.10;99.90;;;;;;7295812;19;20192;-86
2023/10/22 03:16:19;;;;;;;7.03;1.67;;;14.20;99.90;;;;;;7296113;19;20187;-85
2023/10/22 03:18:46;;;;;;;5.03;1.50;;;14.10;99.90;;;;;;7295106;19;20198;-87
2023/10/22 03:21:17;;;;;;;6.30;1.67;;;14.10;99.90;;;;;;7293979;19;20189;-86
2023/10/22 03:23:45;;;;;;;7.27;1.87;;;14.10;99.90;;;;;;7295398;19;20199;-87
2023/10/22 03:26:14;;;;;;;4.60;1.57;;;14.20;99.90;;;;;;7296761;19;20646;-86
2023/10/22 03:28:40;;;;;;;8.20;1.80;;;14.10;99.90;;;;;;7298007;19;20194;-86
2023/10/22 03:31:07;;;;;;;5.57;1.70;;;14.20;99.90;;;;;;7295956;19;20195;-86
2023/10/22 03:33:34;;;;;;;6.93;1.70;;;14.10;99.90;;;;;;7318742;19;20295;-85
2023/10/22 03:36:00;;;;;;;5.33;1.53;;;14.20;99.90;;;;;;7297130;19;20194;-88
2023/10/22 03:38:26;;;;;;;7.33;1.80;;;14.10;99.90;;;;;;7297201;19;20193;-86
2023/10/22 03:41:04;;;;;;;6.67;1.83;;;14.10;99.90;;;;;;7287557;19;20190;-86
2023/10/22 03:43:31;;;;;;;4.77;1.70;;;14.10;99.90;;;;;;7289167;19;20194;-86
2023/10/22 03:45:58;;;;;;;6.77;1.30;;;14.00;99.90;;;;;;7289914;19;20904;-87
2023/10/22 03:48:25;;;;;;;6.53;1.30;;;14.00;99.90;;;;;;7289601;19;20202;-86
2023/10/22 03:50:51;;;;;;;5.50;1.17;;;13.90;99.90;;;;;;7288717;19;20198;-85
2023/10/22 03:53:18;;;;;;;6.47;1.10;;;14.00;99.90;;;;;;7289885;19;20194;-85
2023/10/22 03:55:44;;;;;;;3.20;0.90;;;14.00;99.90;;;;;;7288964;19;20201;-85
2023/10/22 03:58:10;;;;;;;4.80;1.10;;;13.90;99.90;;;;;;7289055;19;20779;-86
2023/10/22 04:00:36;;;;;;;3.67;0.93;;;14.00;99.90;;;;;;7287979;19;20194;-85
2023/10/22 04:03:02;;;;;;;6.57;1.10;;;14.00;99.90;;;;;;7310308;19;20187;-86
2023/10/22 04:05:28;;;;;;;8.23;1.10;;;14.00;99.90;;;;;;7289269;19;20197;-86
2023/10/22 04:07:54;;;;;;;4.40;0.97;;;14.00;99.90;;;;;;7289605;19;20195;-85
2023/10/22 04:10:20;;;;;;;4.20;1.03;;;14.10;99.90;;;;;;7288287;19;20592;-85
2023/10/22 04:12:46;;;;;;;6.57;1.10;;;14.10;99.90;;;;;;7288967;19;20207;-86
2023/10/22 04:15:12;;;;;;;5.30;0.97;;;14.00;99.90;;;;;;7288525;19;20559;-86
2023/10/22 04:17:38;;;;;;;8.13;1.63;;;14.00;99.90;;;;;;7287088;19;20194;-86
2023/10/22 04:20:05;;;;;;;5.87;1.17;;;14.00;99.90;;;;;;7310251;19;20201;-86
2023/10/22 04:22:30;;;;;;;6.77;1.47;;;13.90;99.90;;;;;;7288433;19;20645;-86
2023/10/22 04:24:56;;;;;;;4.17;1.20;;;14.00;99.90;;;;;;7288623;19;20190;-86
2023/10/22 04:27:22;;;;;;;4.93;1.47;;;14.00;99.90;;;;;;7289361;19;20191;-86
2023/10/22 04:29:49;;;;;;;5.73;1.50;;;14.00;99.90;;;;;;7287428;19;20199;-85
2023/10/22 04:32:16;;;;;;;5.97;1.30;;;14.10;99.90;;;;;;7287137;19;20669;-85
2023/10/22 04:34:42;;;;;;;7.50;1.20;;;14.10;99.90;;;;;;7287076;19;20190;-86
2023/10/22 04:37:10;;;;;;;4.93;1.20;;;14.10;99.90;;;;;;7287512;19;20572;-84
2023/10/22 04:39:38;;;;;;;8.20;1.63;;;14.00;99.90;;;;;;7295165;19;20202;-85
2023/10/22 04:42:04;;;;;;;5.30;1.30;;;13.80;99.90;;;;;;7310019;19;20183;-85
2023/10/22 04:44:30;;;;;;;7.40;1.43;;;13.80;99.90;;;;;;7288484;19;20661;-85
2023/10/22 04:46:57;;;;;;;8.63;1.60;;;13.80;99.90;;;;;;7287981;19;20348;-85
2023/10/22 04:49:24;;;;;;;5.97;1.33;;;13.80;99.90;;;;;;7286082;19;20192;-84
2023/10/22 04:51:49;;;;;;;6.23;1.40;;;13.90;99.90;;;;;;7284526;19;20211;-85
2023/10/22 04:54:15;;;;;;;7.80;1.60;;;13.90;99.90;;;;;;7286655;19;21136;-85
2023/10/22 04:56:41;;;;;;;4.97;1.50;;;14.00;99.90;;;;;;7287551;19;20661;-86
2023/10/22 04:59:07;;;;;;;7.77;1.57;;;13.90;99.90;;;;;;7288372;19;20593;-86
2023/10/22 05:01:32;;;;;;;5.20;1.40;;;13.90;99.90;;;;;;7310701;19;20204;-85
2023/10/22 05:03:59;;;;;;;5.70;1.40;;;13.90;99.90;;;;;;7287050;19;20700;-86
2023/10/22 05:06:24;;;;;;;7.53;1.83;;;13.90;99.90;;;;;;7288230;19;20197;-85
2023/10/22 05:08:50;;;;;;;4.17;1.40;;;13.80;99.90;;;;;;7286145;19;20191;-86
2023/10/22 05:11:17;;;;;;;4.27;1.57;;;13.80;99.90;;;;;;7282378;19;20621;-87
2023/10/22 05:13:46;;;;;;;7.07;1.80;;;13.90;99.90;;;;;;7287157;19;20192;-85
2023/10/22 05:16:12;;;;;;;6.10;1.80;;;13.90;99.90;;;;;;7284344;19;20194;-86
2023/10/22 05:18:46;;;;;;;8.53;2.20;;;13.90;99.90;;;;;;7286544;19;20227;-85
2023/10/22 05:21:12;;;;;;;11.73;2.57;;;14.00;99.90;;;;;;7286306;19;20188;-86
2023/10/22 05:23:38;;;;;;;8.47;2.60;;;14.00;99.90;;;;;;7286137;19;20193;-86
2023/10/22 05:26:06;;;;;;;8.03;2.37;;;14.00;99.90;;;;;;7307654;19;20205;-87
2023/10/22 05:28:32;;;;;;;9.43;2.23;;;14.00;99.90;;;;;;7288292;19;20191;-86
2023/10/22 05:30:57;;;;;;;7.87;2.37;;;14.00;99.90;;;;;;7287414;19;20218;-86
2023/10/22 05:33:23;;;;;;;6.97;2.20;;;13.90;99.90;;;;;;7286854;19;20194;-87
2023/10/22 05:35:49;;;;;;;8.67;2.53;;;13.90;99.90;;;;;;7286356;19;20194;-86
2023/10/22 05:38:15;;;;;;;10.30;2.70;;;13.90;99.90;;;;;;7287189;19;20191;-85
2023/10/22 05:40:41;;;;;;;9.23;2.50;;;13.70;99.90;;;;;;7284916;19;20209;-85
2023/10/22 05:43:07;;;;;;;8.17;2.47;;;13.80;99.90;;;;;;7288594;19;20204;-82
2023/10/22 05:45:33;;;;;;;7.93;2.33;;;13.90;99.90;;;;;;7304311;19;20261;-84
2023/10/22 05:47:59;;;;;;;7.67;2.33;;;13.90;99.90;;;;;;7288057;19;20210;-85
2023/10/22 05:50:25;;;;;;;10.30;2.27;;;14.00;99.90;;;;;;7284978;19;20228;-85
2023/10/22 05:52:51;;;;;;;8.37;2.30;;;14.00;99.90;;;;;;7286001;19;20262;-84
2023/10/22 05:55:18;;;;;;;7.33;2.13;;;14.00;99.90;;;;;;7284508;19;20209;-83
2023/10/22 05:57:47;;;;;;;7.77;2.23;;;14.00;99.90;;;;;;7294641;19;20199;-82
2023/10/22 06:00:13;;;;;;;7.83;2.37;;;13.90;99.90;;;;;;7291417;19;20193;-85
2023/10/22 06:02:40;;;;;;;7.47;2.40;;;13.90;99.90;;;;;;7291088;19;20194;-84
2023/10/22 06:05:08;;;;;;;7.67;2.50;;;13.90;99.90;;;;;;7304599;19;20232;-86
2023/10/22 06:07:35;;;;;;;6.60;2.30;;;14.00;99.90;;;;;;7312193;19;20200;-87
2023/10/22 06:10:00;;;;;;;7.67;2.30;;;14.00;99.90;;;;;;7290326;19;20191;-86
2023/10/22 06:12:26;;;;;;;7.13;2.27;;;13.90;99.90;;;;;;7286519;19;20634;-86
2023/10/22 06:14:52;;;;;;;7.40;2.30;;;13.90;99.90;;;;;;7287687;19;20202;-86
2023/10/22 06:17:18;;;;;;;7.63;2.20;;;14.00;99.90;;;;;;7286012;19;20199;-88
2023/10/22 06:19:44;;;;;;;7.00;2.20;;;14.00;99.90;;;;;;7286750;19;20646;-87
2023/10/22 06:22:11;;;;;;;6.67;2.20;;;14.10;99.90;;;;;;7289586;19;20187;-87
2023/10/22 06:24:37;;;;;;;9.50;2.50;;;14.20;99.90;;;;;;7295093;19;20279;-85
2023/10/22 06:27:03;;;;;;;7.10;2.50;;;14.20;99.90;;;;;;7314161;19;20195;-86
2023/10/22 06:29:29;;;;;;;8.60;2.40;;;14.20;99.90;;;;;;7284816;19;20210;-88
2023/10/22 06:31:55;;;;;;;9.33;2.80;;;14.20;99.90;;;;;;7317903;19;25802;-88
2023/10/22 06:34:35;;;;;;;10.40;2.67;;;14.30;99.90;;;;;;7307240;19;20206;-87
2023/10/22 06:37:09;;;;;;;9.77;2.90;;;14.30;99.90;;;;;;7274318;19;20650;-87
2023/10/22 06:39:35;;;;;;;7.30;2.47;;;14.30;99.90;;;;;;7308327;19;20211;-88
2023/10/22 06:42:01;;;;;;;7.00;2.53;;;14.30;99.90;;;;;;7290412;19;20182;-88
2023/10/22 06:44:27;;;;;;;7.33;2.33;;;14.30;99.90;;;;;;7289166;19;20181;-87
2023/10/22 06:46:52;;;;;;;8.27;2.67;;;14.30;99.90;;;;;;7287634;19;20188;-87
2023/10/22 06:49:18;;;;;;;7.33;2.30;;;14.30;99.90;;;;;;7285745;19;20179;-87
2023/10/22 06:51:45;;;;;;;6.80;2.30;;;14.50;99.90;;;;;;7282074;19;20643;-83
2023/10/22 06:54:11;;;;;;;7.83;2.33;;;14.40;99.90;;;;;;7282291;19;20182;-83
2023/10/22 06:56:36;;;;;;;6.70;2.50;;;14.40;99.90;;;;;;7283522;19;20213;-82
2023/10/22 06:59:03;;;;;;;5.70;2.40;;;14.40;99.90;;;;;;7304122;19;20964;-84
2023/10/22 07:01:29;;;;;;;7.40;2.20;;;14.20;99.90;;;;;;7282509;19;20598;-83
2023/10/22 07:03:55;;;;;;;7.47;2.33;;;14.30;99.90;;;;;;7282886;19;20326;-82
2023/10/22 07:06:21;;;;;;;5.73;2.17;;;14.30;99.90;;;;;;7281229;19;20192;-86
2023/10/22 07:08:48;;;;;;;4.43;2.20;;;14.30;99.90;;;;;;7282964;19;20191;-83
2023/10/22 07:11:14;;;;;;;8.53;2.57;;;14.30;99.90;;;;;;7280426;19;20187;-84
2023/10/22 07:13:39;;;;;;;6.27;2.10;;;14.40;99.90;;;;;;7284103;19;21893;-84
2023/10/22 07:16:07;;;;;;;5.57;2.00;;;14.60;99.90;;;;;;7309728;19;20191;-82
2023/10/22 07:18:33;;;;;;;8.27;2.07;;;14.60;99.90;;;;;;7312736;19;20187;-83
2023/10/22 07:21:00;;;;;;;8.00;2.37;;;14.60;99.90;;;;;;7285980;19;20220;-84
2023/10/22 07:23:26;;;;;;;8.47;2.23;;;14.70;99.90;;;;;;7290930;19;20208;-84
2023/10/22 07:25:58;;;;;;;7.77;2.70;;;14.70;99.90;;;;;;7290898;19;20199;-84
2023/10/22 07:28:23;;;;;;;7.00;2.20;;;14.80;99.90;;;;;;7291371;19;20211;-84
2023/10/22 07:30:49;;;;;;;7.23;2.10;;;14.90;99.90;;;;;;7291454;19;20267;-84
2023/10/22 07:33:16;;;;;;;9.17;2.30;;;15.00;99.90;;;;;;7288684;19;20242;-86
2023/10/22 07:35:52;;;;;;;7.43;2.23;;;15.10;99.90;;;;;;7293692;19;20218;-86
2023/10/22 07:38:17;;;;;;;6.53;2.27;;;15.10;99.90;;;;;;7290109;19;20233;-84
2023/10/22 07:40:43;;;;;;;7.47;2.30;;;15.10;99.90;;;;;;7292009;19;20188;-83
2023/10/22 07:43:09;;;;;;;4.77;1.83;;;15.10;99.90;;;;;;7289822;19;20239;-84
2023/10/22 07:45:38;;;;;;;6.57;2.10;;;15.10;99.90;;;;;;7311111;19;20185;-84
2023/10/22 07:48:04;;;;;;;7.40;2.23;;;15.20;99.90;;;;;;7289938;19;20270;-83
2023/10/22 07:50:30;;;;;;;4.17;2.07;;;15.20;99.90;;;;;;7285316;19;20204;-83
2023/10/22 07:52:55;;;;;;;5.47;2.10;;;15.20;99.90;;;;;;7289448;19;20202;-83
2023/10/22 07:55:21;;;;;;;5.30;2.13;;;15.20;99.90;;;;;;7288289;19;20185;-81
2023/10/22 07:57:47;;;;;;;6.33;2.00;;;15.20;99.90;;;;;;7288876;19;20197;-83
2023/10/22 08:00:14;;;;;;;5.10;1.90;;;15.20;99.90;;;;;;7289384;19;20204;-84
2023/10/22 08:02:40;;;;;;;6.27;1.83;;;15.30;99.90;;;;;;7289614;19;20196;-83
2023/10/22 08:05:06;;;;;;;5.47;1.60;;;15.30;99.90;;;;;;7305570;19;20280;-83
2023/10/22 08:07:31;;;;;;;5.80;1.80;;;15.40;99.90;;;;;;7300602;19;20187;-86
2023/10/22 08:09:57;;;;;;;5.17;1.80;;;15.20;99.90;;;;;;7329847;19;20223;-81
2023/10/22 08:12:23;;;;;;;4.90;1.60;;;15.10;99.90;;;;;;7281790;19;20565;-83
2023/10/22 08:14:50;;;;;;;7.20;1.83;;;15.10;99.90;;;;;;7288111;19;20189;-82
2023/10/22 08:17:16;;;;;;;3.70;1.63;;;15.10;99.90;;;;;;7287829;19;20236;-82
2023/10/22 08:19:41;;;;;;;5.23;2.07;;;15.20;99.90;;;;;;7286087;19;20220;-83
2023/10/22 08:22:07;;;;;;;7.93;1.60;;;15.20;99.90;;;;;;7289073;19;20188;-81
2023/10/22 08:24:33;;;;;;;5.30;1.70;;;15.30;99.90;;;;;;7307732;19;20189;-81
2023/10/22 08:27:00;;;;;;;5.77;1.80;;;15.40;99.90;;;;;;7285211;19;20655;-82
2023/10/22 08:29:26;;;;;;;6.23;1.70;;;15.40;99.90;;;;;;7286685;19;20202;-81
2023/10/22 08:31:52;;;;;;;4.60;1.80;;;15.30;99.90;;;;;;7285284;19;20202;-82
2023/10/22 08:34:19;;;;;;;5.93;1.80;;;15.20;99.90;;;;;;7285131;19;20640;-82
2023/10/22 08:36:44;;;;;;;7.23;1.90;;;15.30;99.90;;;;;;7285368;19;20215;-82
2023/10/22 08:39:11;;;;;;;6.80;1.70;;;15.30;99.90;;;;;;7287460;19;20185;-80
2023/10/22 08:41:45;;;;;;;7.43;2.00;;;15.30;99.90;;;;;;7286009;19;20256;-81
2023/10/22 08:44:13;;;;;;;6.00;1.77;;;15.30;99.90;;;;;;7286537;19;20189;-83
2023/10/22 08:46:39;;;;;;;6.47;1.40;;;15.30;99.90;;;;;;7286645;19;20180;-86
2023/10/22 08:49:06;;;;;;;4.57;1.57;;;15.30;99.90;;;;;;7307115;19;20191;-81
2023/10/22 08:51:33;;;;;;;5.40;1.80;;;15.30;99.90;;;;;;7285962;19;20287;-83
2023/10/22 08:54:01;;;;;;;5.13;1.63;;;15.30;99.90;;;;;;7285108;19;20291;-81
2023/10/22 08:56:27;;;;;;;6.40;1.67;;;15.40;99.90;;;;;;7289321;19;20182;-81
2023/10/22 08:58:53;;;;;;;4.07;1.70;;;15.50;99.90;;;;;;7284192;19;20217;-81
2023/10/22 09:01:19;;;;;;;6.10;2.13;;;15.60;99.90;;;;;;7285639;19;20664;-81
2023/10/22 09:03:45;;;;;;;4.77;1.63;;;15.70;99.90;;;;;;7284839;19;20188;-86
2023/10/22 09:06:10;;;;;;;3.90;1.80;;;15.70;99.90;;;;;;7303872;19;20189;-77
2023/10/22 09:08:42;;;;;;;4.63;1.67;;;15.80;99.90;;;;;;7319732;19;20776;-79
2023/10/22 09:11:15;;;;;;;4.07;1.80;;;15.90;99.90;;;;;;7309558;19;20197;-80
2023/10/22 09:13:41;;;;;;;5.17;1.70;;;15.90;99.90;;;;;;7303341;19;20185;-84
2023/10/22 09:16:08;;;;;;;3.33;1.73;;;15.90;99.90;;;;;;7290885;19;20186;-79
2023/10/22 09:18:45;;;;;;;3.47;1.70;;;15.90;99.90;;;;;;7310849;19;20214;-80
2023/10/22 09:21:12;;;;;;;3.83;1.73;;;15.90;99.90;;;;;;7187459;19;2004560;-80
2023/10/22 09:23:38;;;;;;;3.77;1.50;;;16.00;99.90;;;;;;7288715;19;20192;-80
2023/10/22 09:26:04;;;;;;;3.60;1.60;;;16.10;99.90;;;;;;7309295;19;20260;-79
2023/10/22 09:28:30;;;;;;;4.80;1.90;;;15.90;99.90;;;;;;7284751;19;20188;-80
2023/10/22 09:30:59;;;;;;;5.63;1.77;;;16.00;99.90;;;;;;7286533;19;20198;-87
2023/10/22 09:33:34;;;;;;;5.23;2.13;;;16.00;99.90;;;;;;7285895;19;20189;-81
2023/10/22 09:36:08;;;;;;;5.77;1.80;;;16.10;99.90;;;;;;7286876;19;20229;-84
2023/10/22 09:38:45;;;;;;;5.80;2.30;;;16.10;99.90;;;;;;7283924;19;20200;-81
2023/10/22 09:41:27;;;;;;;5.30;2.10;;;16.20;99.90;;;;;;7274903;19;2004461;-83
2023/10/22 09:43:53;;;;;;;5.73;1.97;;;16.30;99.90;;;;;;7350322;19;20174;-83
2023/10/22 09:46:20;;;;;;;7.37;2.20;;;16.40;99.90;;;;;;7311873;19;20193;-81
2023/10/22 09:48:49;;;;;;;3.63;1.87;;;16.40;99.90;;;;;;7290386;19;20219;-81
2023/10/22 09:51:17;;;;;;;5.40;1.90;;;16.60;99.90;;;;;;7291463;19;20539;-85
2023/10/22 09:53:51;;;;;;;3.77;1.70;;;16.70;99.90;;;;;;7291696;19;20197;-83
2023/10/22 09:56:20;;;;;;;5.60;1.90;;;17.00;99.90;;;;;;7297374;19;20198;-83
2023/10/22 09:58:48;;;;;;;3.27;2.10;;;17.10;99.90;;;;;;7289261;19;20710;-84
2023/10/22 10:01:15;;;;;;;4.80;2.00;;;17.20;99.90;;;;;;7288679;19;20195;-82
2023/10/22 10:03:42;;;;;;;5.97;2.30;;;17.30;99.90;;;;;;7292429;19;20232;-83
2023/10/22 10:06:09;;;;;;;5.43;1.70;;;17.50;99.90;;;;;;7292488;19;20664;-83
2023/10/22 10:08:38;;;;;;;5.10;1.67;;;17.40;99.90;;;;;;7311146;19;20186;-83
2023/10/22 10:11:10;;;;;;;5.73;1.93;;;17.40;99.90;;;;;;7307896;19;20195;-83
2023/10/22 10:13:36;;;;;;;4.50;1.70;;;17.40;99.90;;;;;;7278288;19;20196;-84
2023/10/22 10:16:04;;;;;;;4.20;1.47;;;17.50;99.90;;;;;;7311784;19;20701;-83
2023/10/22 10:18:58;;;;;;;3.93;1.63;;;17.40;99.90;;;;;;7290332;19;20192;-84
2023/10/22 10:21:38;;;;;;;2.57;1.67;;;17.40;99.90;;;;;;7188857;19;2004571;-82
2023/10/22 10:24:27;;;;;;;3.83;1.87;;;17.20;99.90;;;;;;7288384;19;20701;-82
2023/10/22 10:27:16;;;;;;;4.87;1.40;;;17.20;99.90;;;;;;7183081;19;2006134;-84
2023/10/22 10:29:43;;;;;;;4.17;1.30;;;17.20;99.90;;;;;;7182460;19;2004742;-83
2023/10/22 10:32:14;;;;;;;4.93;1.40;;;17.60;99.90;;;;;;7283187;19;20186;-82
2023/10/22 10:34:46;;;;;;;5.77;1.40;;;18.00;99.90;;;;;;7285158;19;20189;-83
2023/10/22 10:37:17;;;;;;;4.20;1.37;;;18.30;99.90;;;;;;7286657;19;20184;-84
2023/10/22 10:39:47;;;;;;;3.73;1.27;;;18.50;99.90;;;;;;7283598;19;20198;-84
2023/10/22 10:42:14;;;;;;;3.37;1.30;;;18.30;99.90;;;;;;7284491;19;20193;-84
2023/10/22 10:44:58;;;;;;;2.23;0.90;;;18.30;99.90;;;;;;7286553;19;20184;-84
2023/10/22 10:47:24;;;;;;;3.00;1.00;;;18.40;99.90;;;;;;7290803;19;20196;-84
2023/10/22 10:50:03;;;;;;;4.07;1.30;;;18.60;99.90;;;;;;7296542;19;20197;-84
2023/10/22 10:52:31;;;;;;;3.00;1.00;;;18.50;99.90;;;;;;7298391;19;20225;-84
2023/10/22 10:55:02;;;;;;;6.00;2.17;;;18.40;99.90;;;;;;7298948;19;20751;-83
2023/10/22 10:57:39;;;;;;;4.60;1.20;;;18.30;99.90;;;;;;7297796;19;20192;-83
2023/10/22 11:00:09;;;;;;;5.33;1.93;;;17.60;99.90;;;;;;7296855;19;20864;-82
2023/10/22 11:02:42;;;;;;;3.27;1.50;;;17.10;99.90;;;;;;7316513;19;20194;-83
2023/10/22 11:05:09;;;;;;;6.70;1.90;;;16.70;99.90;;;;;;7295340;19;20196;-83
2023/10/22 11:07:36;;;;;;;4.93;1.93;;;16.60;99.90;;;;;;7314161;19;20541;-84
2023/10/22 11:10:16;;;;;;;4.00;1.50;;;16.70;99.90;;;;;;7314797;19;20190;-83
2023/10/22 11:12:43;;;;;;;5.87;1.23;;;18.00;99.90;;;;;;7191429;19;2004728;-83
2023/10/22 11:15:11;;;;;;;4.33;1.50;;;19.40;99.90;;;;;;7288379;19;20261;-83
2023/10/22 11:17:40;;;;;;;4.73;1.30;;;20.90;99.90;;;;;;7287518;19;20189;-83
2023/10/22 11:20:07;;;;;;;2.33;1.20;;;21.30;99.90;;;;;;7302125;19;20208;-83
2023/10/22 11:22:36;;;;;;;6.57;1.30;;;21.60;99.90;;;;;;7318006;19;20658;-83
2023/10/22 11:25:09;;;;;;;4.13;1.30;;;21.90;99.90;;;;;;7295934;19;20244;-84
2023/10/22 11:27:37;;;;;;;5.00;1.40;;;21.70;99.90;;;;;;7288843;19;20185;-82
2023/10/22 11:30:05;;;;;;;3.60;1.43;;;21.20;99.90;;;;;;7318445;19;20194;-84
2023/10/22 11:32:36;;;;;;;6.27;1.60;;;20.80;99.90;;;;;;7298025;19;20201;-82
2023/10/22 11:35:08;;;;;;;4.43;1.73;;;20.40;99.90;;;;;;7298811;19;20211;-82
2023/10/22 11:37:43;;;;;;;3.90;1.60;;;20.30;99.90;;;;;;7298312;19;20542;-83
2023/10/22 11:40:30;;;;;;;5.17;1.50;;;20.20;99.90;;;;;;7271668;19;20304;-83
2023/10/22 11:43:14;;;;;;;7.10;1.70;;;20.30;99.90;;;;;;7295241;19;20216;-84
2023/10/22 11:45:58;;;;;;;4.60;1.83;;;20.10;99.90;;;;;;7292609;19;20201;-83
2023/10/22 11:48:25;;;;;;;8.23;1.60;;;19.80;99.90;;;;;;7295286;19;20195;-85
2023/10/22 11:50:56;;;;;;;6.10;2.00;;;19.80;99.90;;;;;;7289651;19;20184;-84
2023/10/22 11:53:22;;;;;;;4.73;1.70;;;19.90;99.90;;;;;;7289724;19;20195;-83
2023/10/22 11:55:55;;;;;;;1.90;1.30;;;20.80;99.90;;;;;;7287860;19;20254;-84
2023/10/22 11:58:25;;;;;;;2.93;1.23;;;22.20;99.90;;;;;;7288512;19;20191;-84
2023/10/22 12:00:52;;;;;;;2.43;0.77;;;23.20;99.90;;;;;;7287177;19;20191;-84
2023/10/22 12:03:18;;;;;;;3.53;0.77;;;23.20;99.90;;;;;;7288526;19;20181;-84
2023/10/22 12:05:44;;;;;;;2.73;0.70;;;23.20;99.90;;;;;;7288725;19;20189;-83
2023/10/22 12:08:10;;;;;;;1.10;0.43;;;23.70;99.90;;;;;;7287644;19;20193;-84
2023/10/22 12:10:36;;;;;;;2.80;0.63;;;24.40;99.90;;;;;;7295685;19;20193;-83
2023/10/22 12:13:05;;;;;;;1.57;0.50;;;25.10;99.90;;;;;;7311294;19;20266;-84
2023/10/22 12:15:31;;;;;;;3.03;0.67;;;24.70;99.90;;;;;;7288321;19;20207;-84
2023/10/22 12:17:57;;;;;;;3.37;0.63;;;24.60;99.90;;;;;;7290020;19;20663;-83
2023/10/22 12:20:23;;;;;;;3.30;0.80;;;24.30;99.90;;;;;;7289656;19;20239;-84
2023/10/22 12:22:49;;;;;;;2.37;0.53;;;24.00;99.90;;;;;;7306561;19;20240;-83
2023/10/22 12:25:15;;;;;;;3.37;0.73;;;23.60;99.90;;;;;;7305798;19;20624;-84
2023/10/22 12:27:41;;;;;;;2.93;0.80;;;22.80;99.90;;;;;;7300697;19;20193;-83
2023/10/22 12:30:07;;;;;;;3.07;0.60;;;21.80;99.90;;;;;;7293195;19;20197;-83
2023/10/22 12:32:33;;;;;;;4.40;0.90;;;21.20;99.90;;;;;;7309905;19;20194;-84
2023/10/22 12:34:59;;;;;;;4.60;0.80;;;20.60;99.90;;;;;;7287375;19;20179;-83
2023/10/22 12:37:26;;;;;;;3.77;0.93;;;20.30;99.90;;;;;;7287394;19;21539;-83
2023/10/22 12:39:52;;;;;;;3.53;0.87;;;19.90;99.90;;;;;;7288180;19;20609;-83
2023/10/22 12:42:18;;;;;;;4.00;0.80;;;19.90;99.90;;;;;;7286963;19;20202;-83
2023/10/22 12:44:44;;;;;;;4.10;1.00;;;20.00;99.90;;;;;;7285298;19;20183;-83
2023/10/22 12:47:12;;;;;;;4.50;0.80;;;19.90;99.90;;;;;;7286545;19;20199;-83